PDT,Max TemperatureF,Mean TemperatureF,Min TemperatureF,Max Dew PointF,MeanDew PointF,Min DewpointF,Max Humidity, Mean Humidity, Min Humidity, Max Sea Level PressureIn, Mean Sea Level PressureIn, Min Sea Level PressureIn, Max VisibilityMiles, Mean VisibilityMiles, Min VisibilityMiles, Max Wind SpeedMPH, Mean Wind SpeedMPH, Max Gust SpeedMPH,PrecipitationIn, CloudCover, Events, WindDirDegrees
2012-10-1,67,55,43,58,49,42,90,81,42,30.36,30.26,30.20,10,7,2,14,3,18,0.01,6,Rain,326
2012-10-2,63,52,41,49,44,37,100,82,47,30.29,30.21,30.17,10,4,0,12,4,17,0.00,4,Fog,315
2012-10-3,67,55,42,35,28,25,59,33,13,30.35,30.30,30.26,10,10,9,22,11,31,0.00,0,,37
2012-10-4,70,53,36,32,28,23,70,39,10,30.27,30.25,30.22,10,10,9,24,6,31,0.00,0,,45
2012-10-5,71,54,37,33,29,25,70,40,10,30.26,30.22,30.19,10,9,8,17,6,23,0.00,0,,54
2012-10-6,72,55,38,41,35,31,76,51,21,30.21,30.16,30.10,10,9,7,10,2,14,0.00,0,,152
2012-10-7,72,55,38,40,36,32,82,56,18,30.09,30.01,29.93,9,8,7,9,2,12,0.00,0,,233
2012-10-8,61,49,37,50,45,34,89,79,60,30.05,29.99,29.92,9,7,6,14,3,20,0.00,4,,198
2012-10-9,59,51,43,48,46,39,93,77,57,30.12,30.08,30.06,8,7,6,9,2,12,0.00,6,,248
2012-10-10,57,50,42,47,43,39,93,82,60,30.05,30.02,29.99,10,7,1,10,2,13,0.00,6,,326
2012-10-11,53,51,48,46,45,43,93,83,70,29.99,29.92,29.83,9,6,2,8,2,10,0.00,8,,180
2012-10-12,54,52,49,52,50,45,94,91,82,29.96,29.85,29.80,8,2,1,13,6,22,0.82,8,Rain,148
2012-10-13,58,56,54,56,55,52,100,94,88,30.06,30.04,29.96,5,2,0,18,10,33,1.75,8,Fog-Rain,184
2012-10-14,57,55,52,55,53,52,100,95,86,30.02,29.88,29.83,9,2,0,24,10,40,2.62,8,Fog-Rain,183
2012-10-15,60,55,50,57,52,48,100,93,74,29.92,29.73,29.49,9,3,0,18,6,31,0.96,7,Fog-Rain-Thunderstorm,181
2012-10-16,57,49,40,49,44,37,93,80,51,30.30,30.07,29.67,8,6,1,20,5,31,0.06,5,Rain,267
2012-10-17,58,51,43,48,44,39,93,84,67,30.30,30.26,30.19,8,5,0,9,2,13,0.02,7,Fog-Rain,110
2012-10-18,57,53,48,54,48,45,94,88,73,30.19,29.87,29.74,7,3,1,20,5,29,1.37,8,Rain,145
2012-10-19,58,49,40,56,47,39,100,90,74,29.87,29.80,29.74,10,4,0,20,5,30,0.57,8,Fog-Rain,248
2012-10-20,49,43,37,45,38,35,100,89,76,29.88,29.85,29.81,10,5,0,24,3,29,0.64,6,Fog-Rain,174
2012-10-21,50,42,33,43,38,32,93,84,59,29.83,29.80,29.74,10,8,2,13,4,20,0.35,4,Rain,118
2012-10-22,47,43,38,40,38,35,92,82,68,29.72,29.58,29.54,10,7,2,13,6,18,0.30,8,Rain,62
2012-10-23,49,45,40,41,39,37,89,83,74,29.82,29.74,29.60,10,8,3,16,5,23,0.07,7,Rain,119
2012-10-24,51,45,39,43,40,37,93,82,65,30.16,29.93,29.82,10,8,3,13,5,20,0.03,7,Rain,99
2012-10-25,55,46,36,43,40,34,93,79,63,30.38,30.31,30.18,9,8,5,12,5,16,T,4,,93
2012-10-26,52,49,45,50,45,39,94,90,71,30.25,30.05,29.99,10,3,1,10,6,15,0.28,8,Rain,105
2012-10-27,56,53,50,54,50,46,96,92,85,30.01,29.89,29.71,7,2,0,16,6,24,0.92,8,Fog-Rain,180
2012-10-28,55,53,50,52,50,48,100,90,77,29.95,29.90,29.70,7,4,0,10,4,13,0.24,8,Fog-Rain,216
2012-10-29,57,54,51,55,52,48,100,93,86,29.98,29.86,29.67,7,2,0,20,9,26,0.60,8,Fog-Rain,197
2012-10-30,56,55,53,54,53,51,100,93,86,29.91,29.76,29.66,9,3,0,17,7,31,2.75,8,Fog-Rain,117
2012-10-31,55,54,53,54,52,50,94,92,86,29.71,29.60,29.54,9,4,1,18,9,32,1.24,8,Rain,154